createdAt,value
2023-06-04T00:00:47.839Z,15.92
2023-06-04T00:01:49.698Z,15.95
2023-06-04T00:02:52.170Z,15.96
2023-06-04T00:03:54.588Z,15.97
2023-06-04T00:04:56.422Z,15.98
2023-06-04T00:05:58.382Z,16.02
2023-06-04T00:07:00.072Z,16.03
2023-06-04T00:08:01.809Z,16.02
2023-06-04T00:09:03.719Z,16.00
2023-06-04T00:10:06.092Z,16.01
2023-06-04T00:11:08.125Z,16.00
2023-06-04T00:12:10.147Z,16.02
2023-06-04T00:13:12.035Z,16.03
2023-06-04T00:14:16.553Z,16.03
2023-06-04T00:15:18.333Z,15.99
2023-06-04T00:16:20.221Z,15.97
2023-06-04T00:17:22.006Z,15.95
2023-06-04T00:18:23.831Z,15.89
2023-06-04T00:19:25.798Z,15.87
2023-06-04T00:20:27.894Z,15.86
2023-06-04T00:21:30.028Z,15.86
2023-06-04T00:22:31.942Z,15.85
2023-06-04T00:23:33.800Z,15.82
2023-06-04T00:24:36.620Z,15.80
2023-06-04T00:25:38.457Z,15.78
2023-06-04T00:26:40.392Z,15.75
2023-06-04T00:27:42.226Z,15.73
2023-06-04T00:28:44.061Z,15.70
2023-06-04T00:29:45.928Z,15.62
2023-06-04T00:30:47.614Z,15.49
2023-06-04T00:31:49.378Z,15.45
2023-06-04T00:32:51.220Z,15.43
2023-06-04T00:33:53.155Z,15.40
2023-06-04T00:34:56.414Z,15.42
2023-06-04T00:35:58.209Z,15.42
2023-06-04T00:37:03.029Z,15.39
2023-06-04T00:38:04.766Z,15.36
2023-06-04T00:39:06.929Z,15.31
2023-06-04T00:40:09.008Z,15.28
2023-06-04T00:41:10.864Z,15.27
2023-06-04T00:42:12.712Z,15.27
2023-06-04T00:43:14.905Z,15.24
2023-06-04T00:44:16.687Z,15.23
2023-06-04T00:45:21.563Z,15.23
2023-06-04T00:46:28.230Z,15.18
2023-06-04T00:47:30.089Z,15.20
2023-06-04T00:48:31.934Z,15.22
2023-06-04T00:49:33.678Z,15.24
2023-06-04T00:50:37.080Z,15.16
2023-06-04T00:51:39.258Z,15.12
2023-06-04T00:52:41.507Z,15.14
2023-06-04T00:53:43.759Z,15.06
2023-06-04T00:54:45.834Z,15.02
2023-06-04T00:55:47.645Z,15.04
2023-06-04T00:56:49.588Z,15.05
2023-06-04T00:57:51.750Z,15.04
2023-06-04T00:58:55.126Z,15.02
2023-06-04T00:59:57.046Z,15.01
2023-06-04T01:01:01.098Z,15.02
2023-06-04T01:02:17.497Z,15.03
2023-06-04T01:03:20.834Z,15.05
2023-06-04T01:04:27.073Z,15.08
2023-06-04T01:05:36.133Z,15.12
2023-06-04T01:06:44.190Z,15.14
2023-06-04T01:07:48.021Z,15.14
2023-06-04T01:08:51.634Z,15.11
2023-06-04T01:09:53.503Z,15.05
2023-06-04T01:10:56.946Z,14.94
2023-06-04T01:11:59.669Z,14.85
2023-06-04T01:13:01.489Z,14.71
2023-06-04T01:14:09.621Z,14.63
2023-06-04T01:15:12.681Z,14.60
2023-06-04T01:16:15.812Z,14.58
2023-06-04T01:17:42.884Z,14.58
2023-06-04T01:18:45.451Z,14.48
2023-06-04T01:19:49.398Z,14.35
2023-06-04T01:20:52.785Z,14.27
2023-06-04T01:21:56.634Z,14.15
2023-06-04T01:23:06.816Z,14.08
2023-06-04T01:24:09.596Z,14.07
2023-06-04T01:25:30.041Z,14.12
2023-06-04T01:26:32.806Z,14.17
2023-06-04T01:27:36.652Z,14.20
2023-06-04T01:28:38.926Z,14.24
2023-06-04T01:29:40.688Z,14.25
2023-06-04T01:30:44.514Z,14.31
2023-06-04T01:31:46.522Z,14.36
2023-06-04T01:32:48.499Z,14.40
2023-06-04T01:33:52.977Z,14.45
2023-06-04T01:34:55.548Z,14.47
2023-06-04T01:35:57.548Z,14.48
2023-06-04T01:36:59.456Z,14.50
2023-06-04T01:38:01.944Z,14.52
2023-06-04T01:39:04.522Z,14.51
2023-06-04T01:40:09.038Z,14.53
2023-06-04T01:41:11.190Z,14.43
2023-06-04T01:42:13.023Z,14.37
2023-06-04T01:43:15.050Z,14.28
2023-06-04T01:44:16.857Z,14.24
2023-06-04T01:45:18.626Z,14.22
2023-06-04T01:46:20.369Z,14.21
2023-06-04T01:47:22.178Z,14.23
2023-06-04T01:48:24.046Z,14.18
2023-06-04T01:49:26.113Z,14.12
2023-06-04T01:50:28.130Z,14.12
2023-06-04T01:51:29.968Z,14.15
2023-06-04T01:52:32.058Z,14.18
2023-06-04T01:53:33.768Z,14.17
2023-06-04T01:54:35.592Z,14.19
2023-06-04T01:55:39.181Z,14.23
2023-06-04T01:56:40.968Z,14.26
2023-06-04T01:57:43.689Z,14.30
2023-06-04T01:58:45.600Z,14.33
2023-06-04T01:59:47.921Z,14.37
2023-06-04T02:00:54.208Z,14.40
2023-06-04T02:01:56.003Z,14.42
2023-06-04T02:02:58.035Z,14.46
2023-06-04T02:04:00.185Z,14.46
2023-06-04T02:05:02.518Z,14.48
2023-06-04T02:06:06.089Z,14.50
2023-06-04T02:07:08.483Z,14.52
2023-06-04T02:08:10.365Z,14.53
2023-06-04T02:09:12.073Z,14.54
2023-06-04T02:10:15.182Z,14.54
2023-06-04T02:11:16.995Z,14.55
2023-06-04T02:12:19.368Z,14.56
2023-06-04T02:13:21.438Z,14.55
2023-06-04T02:14:23.295Z,14.55
2023-06-04T02:15:25.801Z,14.55
2023-06-04T02:16:27.678Z,14.49
2023-06-04T02:17:32.865Z,14.44
2023-06-04T02:18:35.306Z,14.38
2023-06-04T02:19:38.245Z,14.37
2023-06-04T02:20:40.044Z,14.32
2023-06-04T02:21:41.761Z,14.28
2023-06-04T02:22:44.455Z,14.28
2023-06-04T02:23:46.400Z,14.27
2023-06-04T02:24:49.132Z,14.26
2023-06-04T02:25:51.329Z,14.27
2023-06-04T02:26:53.303Z,14.28
2023-06-04T02:27:55.020Z,14.29
2023-06-04T02:28:56.799Z,14.29
2023-06-04T02:29:58.595Z,14.28
2023-06-04T02:31:00.709Z,14.32
2023-06-04T02:32:02.835Z,14.29
2023-06-04T02:33:05.346Z,14.28
2023-06-04T02:34:07.160Z,14.30
2023-06-04T02:35:09.458Z,14.25
2023-06-04T02:36:11.740Z,14.20
2023-06-04T02:37:13.516Z,14.12
2023-06-04T02:38:15.237Z,14.09
2023-06-04T02:39:16.976Z,14.13
2023-06-04T02:40:18.791Z,14.12
2023-06-04T02:41:21.294Z,14.12
2023-06-04T02:42:23.103Z,14.11
2023-06-04T02:43:24.972Z,14.08
2023-06-04T02:44:27.733Z,14.08
2023-06-04T02:45:30.219Z,14.11
2023-06-04T02:46:32.095Z,14.17
2023-06-04T02:47:34.286Z,14.16
2023-06-04T02:48:36.127Z,14.06
2023-06-04T02:49:37.886Z,13.97
2023-06-04T02:50:40.560Z,13.87
2023-06-04T02:51:42.584Z,13.88
2023-06-04T02:52:44.890Z,13.94
2023-06-04T02:53:47.450Z,14.01
2023-06-04T02:54:49.281Z,14.02
2023-06-04T02:55:54.264Z,14.04
2023-06-04T02:56:56.065Z,14.07
2023-06-04T02:57:57.949Z,14.10
2023-06-04T02:59:00.125Z,14.14
2023-06-04T03:00:02.590Z,14.18
2023-06-04T03:01:04.671Z,14.21
2023-06-04T03:02:06.751Z,14.26
2023-06-04T03:03:08.596Z,14.16
2023-06-04T03:04:11.555Z,14.13
2023-06-04T03:05:14.603Z,14.12
2023-06-04T03:06:16.870Z,14.07
2023-06-04T03:07:21.939Z,14.10
2023-06-04T03:08:23.868Z,14.13
2023-06-04T03:09:25.883Z,14.13
2023-06-04T03:10:27.613Z,14.07
2023-06-04T03:11:29.488Z,14.04
2023-06-04T03:12:31.336Z,13.99
2023-06-04T03:13:33.716Z,13.93
2023-06-04T03:14:35.511Z,13.87
2023-06-04T03:15:40.516Z,13.91
2023-06-04T03:16:42.417Z,13.98
2023-06-04T03:17:45.717Z,14.04
2023-06-04T03:18:47.640Z,14.08
2023-06-04T03:19:49.774Z,14.09
2023-06-04T03:20:51.446Z,14.14
2023-06-04T03:21:53.687Z,14.17
2023-06-04T03:22:55.810Z,14.15
2023-06-04T03:23:57.916Z,14.15
2023-06-04T03:24:59.722Z,14.13
2023-06-04T03:26:05.008Z,14.11
2023-06-04T03:27:07.332Z,14.08
2023-06-04T03:28:09.077Z,13.98
2023-06-04T03:29:10.749Z,13.83
2023-06-04T03:30:12.823Z,13.78
2023-06-04T03:31:14.596Z,13.80
2023-06-04T03:32:17.367Z,13.80
2023-06-04T03:33:22.508Z,13.79
2023-06-04T03:34:26.976Z,13.87
2023-06-04T03:35:28.776Z,13.93
2023-06-04T03:36:33.109Z,13.98
2023-06-04T03:37:34.879Z,13.99
2023-06-04T03:38:36.688Z,13.98
2023-06-04T03:39:38.527Z,13.96
2023-06-04T03:40:40.545Z,13.97
2023-06-04T03:41:42.864Z,14.00
2023-06-04T03:42:44.789Z,14.04
2023-06-04T03:43:46.631Z,14.05
2023-06-04T03:44:48.531Z,14.05
2023-06-04T03:45:50.203Z,14.03
2023-06-04T03:46:52.261Z,14.04
2023-06-04T03:47:54.164Z,14.00
2023-06-04T03:48:56.085Z,13.96
2023-06-04T03:49:58.144Z,13.95
2023-06-04T03:50:59.939Z,14.02
2023-06-04T03:52:01.926Z,14.09
2023-06-04T03:53:06.315Z,14.07
2023-06-04T03:54:08.178Z,14.02
2023-06-04T03:55:10.010Z,14.05
2023-06-04T03:56:12.377Z,14.12
2023-06-04T03:57:14.242Z,14.17
2023-06-04T03:58:16.323Z,14.18
2023-06-04T03:59:18.184Z,14.20
2023-06-04T04:00:20.444Z,14.22
2023-06-04T04:01:24.756Z,14.24
2023-06-04T04:02:27.332Z,14.24
2023-06-04T04:03:32.435Z,14.19
2023-06-04T04:04:34.539Z,14.15
2023-06-04T04:05:37.090Z,14.17
2023-06-04T04:06:39.103Z,14.18
2023-06-04T04:07:40.976Z,14.13
2023-06-04T04:08:45.631Z,14.15
2023-06-04T04:09:47.402Z,14.19
2023-06-04T04:10:49.154Z,14.19
2023-06-04T04:11:50.937Z,14.19
2023-06-04T04:12:54.943Z,14.15
2023-06-04T04:13:57.971Z,14.13
2023-06-04T04:15:00.327Z,14.14
2023-06-04T04:16:02.346Z,14.11
2023-06-04T04:17:04.321Z,14.07
2023-06-04T04:18:06.174Z,14.09
2023-06-04T04:19:09.189Z,14.10
2023-06-04T04:20:11.283Z,14.12
2023-06-04T04:21:13.030Z,14.14
2023-06-04T04:22:18.699Z,14.15
2023-06-04T04:23:21.316Z,14.18
2023-06-04T04:24:27.370Z,14.23
2023-06-04T04:25:29.213Z,14.24
2023-06-04T04:26:31.103Z,14.23
2023-06-04T04:27:35.338Z,14.20
2023-06-04T04:28:37.117Z,14.21
2023-06-04T04:29:39.122Z,14.19
2023-06-04T04:30:42.004Z,14.16
2023-06-04T04:31:43.872Z,14.17
2023-06-04T04:32:50.468Z,14.13
2023-06-04T04:33:53.542Z,14.10
2023-06-04T04:34:56.399Z,14.14
2023-06-04T04:36:00.490Z,14.20
2023-06-04T04:37:04.031Z,14.24
2023-06-04T04:38:05.803Z,14.26
2023-06-04T04:39:08.443Z,14.29
2023-06-04T04:40:11.261Z,14.32
2023-06-04T04:41:13.597Z,14.34
2023-06-04T04:42:15.766Z,14.33
2023-06-04T04:43:17.572Z,14.28
2023-06-04T04:44:19.406Z,14.27
2023-06-04T04:45:22.221Z,14.26
2023-06-04T04:46:23.992Z,14.20
2023-06-04T04:47:25.898Z,14.17
2023-06-04T04:48:27.692Z,14.17
2023-06-04T04:49:29.602Z,14.19
2023-06-04T04:50:32.732Z,14.24
2023-06-04T04:51:34.630Z,14.29
2023-06-04T04:52:36.550Z,14.32
2023-06-04T04:53:38.363Z,14.35
2023-06-04T04:54:40.160Z,14.31
2023-06-04T04:55:42.084Z,14.30
2023-06-04T04:56:43.819Z,14.31
2023-06-04T04:57:45.550Z,14.34
2023-06-04T04:58:47.477Z,14.38
2023-06-04T04:59:49.442Z,14.41
2023-06-04T05:00:51.205Z,14.45
2023-06-04T05:01:53.105Z,14.45
2023-06-04T05:02:54.962Z,14.47
2023-06-04T05:03:56.825Z,14.53
2023-06-04T05:04:58.581Z,14.56
2023-06-04T05:06:00.344Z,14.62
2023-06-04T05:07:02.161Z,14.62
2023-06-04T05:08:03.986Z,14.65
2023-06-04T05:09:05.767Z,14.63
2023-06-04T05:10:08.370Z,14.60
2023-06-04T05:11:10.659Z,14.55
2023-06-04T05:12:12.515Z,14.54
2023-06-04T05:13:14.344Z,14.58
2023-06-04T05:14:16.381Z,14.63
2023-06-04T05:15:19.671Z,14.70
2023-06-04T05:16:23.927Z,14.71
2023-06-04T05:17:33.613Z,14.77
2023-06-04T05:18:35.922Z,14.84
2023-06-04T05:19:38.466Z,14.88
2023-06-04T05:20:40.288Z,14.90
2023-06-04T05:21:42.222Z,14.91
2023-06-04T05:22:45.176Z,14.95
2023-06-04T05:23:49.965Z,14.96
2023-06-04T05:24:53.065Z,15.00
2023-06-04T05:25:55.924Z,15.02
2023-06-04T05:26:58.524Z,15.02
2023-06-04T05:28:00.202Z,15.00
2023-06-04T05:29:02.757Z,14.94
2023-06-04T05:30:05.180Z,14.92
2023-06-04T05:31:10.181Z,14.95
2023-06-04T05:32:12.469Z,14.97
2023-06-04T05:33:19.520Z,14.99
2023-06-04T05:34:22.692Z,14.98
2023-06-04T05:35:24.432Z,15.03
2023-06-04T05:36:26.559Z,15.05
2023-06-04T05:37:28.438Z,15.10
2023-06-04T05:38:32.447Z,15.13
2023-06-04T05:39:34.404Z,15.14
2023-06-04T05:40:36.380Z,15.12
2023-06-04T05:41:38.290Z,15.15
2023-06-04T05:42:40.081Z,15.19
2023-06-04T05:43:41.935Z,15.24
2023-06-04T05:44:43.672Z,15.30
2023-06-04T05:45:45.636Z,15.34
2023-06-04T05:46:47.477Z,15.36
2023-06-04T05:47:49.382Z,15.38
2023-06-04T05:48:52.518Z,15.38
2023-06-04T05:49:54.233Z,15.42
2023-06-04T05:50:56.057Z,15.44
2023-06-04T05:51:57.735Z,15.44
2023-06-04T05:52:59.518Z,15.42
2023-06-04T05:54:01.499Z,15.38
2023-06-04T05:55:03.726Z,15.37
2023-06-04T05:56:05.630Z,15.37
2023-06-04T05:57:07.514Z,15.35
2023-06-04T05:58:09.241Z,15.34
2023-06-04T05:59:11.051Z,15.38
2023-06-04T06:00:13.807Z,15.40
2023-06-04T06:01:16.504Z,15.43
2023-06-04T06:02:18.453Z,15.46
2023-06-04T06:03:20.627Z,15.47
2023-06-04T06:04:22.667Z,15.50
2023-06-04T06:05:24.664Z,15.54
2023-06-04T06:06:26.644Z,15.52
2023-06-04T06:07:28.565Z,15.49
2023-06-04T06:08:30.325Z,15.48
2023-06-04T06:09:32.147Z,15.49
2023-06-04T06:10:33.980Z,15.50
2023-06-04T06:11:35.820Z,15.49
2023-06-04T06:12:37.547Z,15.50
2023-06-04T06:13:39.450Z,15.51
2023-06-04T06:14:41.320Z,15.55
2023-06-04T06:15:43.411Z,15.58
2023-06-04T06:16:45.360Z,15.60
2023-06-04T06:17:47.193Z,15.62
2023-06-04T06:18:49.431Z,15.63
2023-06-04T06:19:51.167Z,15.65
2023-06-04T06:20:52.939Z,15.63
2023-06-04T06:21:54.677Z,15.60
2023-06-04T06:22:56.554Z,15.60
2023-06-04T06:23:58.275Z,15.64
2023-06-04T06:25:00.303Z,15.63
2023-06-04T06:26:03.231Z,15.64
2023-06-04T06:27:06.549Z,15.65
2023-06-04T06:28:08.738Z,15.63
2023-06-04T06:29:10.633Z,15.60
2023-06-04T06:30:13.438Z,15.62
2023-06-04T06:31:16.367Z,15.64
2023-06-04T06:32:18.268Z,15.64
2023-06-04T06:33:22.920Z,15.65
2023-06-04T06:34:24.815Z,15.69
2023-06-04T06:35:26.624Z,15.72
2023-06-04T06:36:29.914Z,15.75
2023-06-04T06:37:31.743Z,15.79
2023-06-04T06:38:33.549Z,15.85
2023-06-04T06:39:35.290Z,15.89
2023-06-04T06:40:37.086Z,15.94
2023-06-04T06:41:39.909Z,15.99
2023-06-04T06:42:41.718Z,15.95
2023-06-04T06:43:43.438Z,15.89
2023-06-04T06:44:45.758Z,15.89
2023-06-04T06:45:47.568Z,15.92
2023-06-04T06:46:50.119Z,15.93
2023-06-04T06:47:52.051Z,15.93
2023-06-04T06:48:53.835Z,15.94
2023-06-04T06:49:56.291Z,15.93
2023-06-04T06:50:58.430Z,15.92
2023-06-04T06:52:00.207Z,15.89
2023-06-04T06:53:04.432Z,15.91
2023-06-04T06:54:09.848Z,15.90
2023-06-04T06:55:11.725Z,15.94
2023-06-04T06:56:15.219Z,16.01
2023-06-04T06:57:18.350Z,16.09
2023-06-04T06:58:20.921Z,16.14
2023-06-04T06:59:22.912Z,16.14
2023-06-04T07:00:25.456Z,16.17
2023-06-04T07:01:28.099Z,16.24
2023-06-04T07:02:30.470Z,16.29
2023-06-04T07:03:32.605Z,16.33
2023-06-04T07:04:34.383Z,16.35
2023-06-04T07:05:36.393Z,16.35
2023-06-04T07:06:38.546Z,16.33
2023-06-04T07:07:40.384Z,16.32
2023-06-04T07:08:43.546Z,16.30
2023-06-04T07:09:45.282Z,16.29
2023-06-04T07:10:47.377Z,16.25
2023-06-04T07:11:49.151Z,16.21
2023-06-04T07:12:50.985Z,16.22
2023-06-04T07:13:53.034Z,16.27
2023-06-04T07:14:54.869Z,16.33
2023-06-04T07:15:57.044Z,16.37
2023-06-04T07:16:59.071Z,16.40
2023-06-04T07:18:00.944Z,16.46
2023-06-04T07:19:03.485Z,16.51
2023-06-04T07:20:08.105Z,16.53
2023-06-04T07:21:10.044Z,16.54
2023-06-04T07:22:11.931Z,16.59
2023-06-04T07:23:13.708Z,16.64
2023-06-04T07:24:15.477Z,16.67
2023-06-04T07:25:17.482Z,16.68
2023-06-04T07:26:19.391Z,16.68
2023-06-04T07:27:23.398Z,16.68
2023-06-04T07:28:25.293Z,16.73
2023-06-04T07:29:27.146Z,16.74
2023-06-04T07:30:29.086Z,16.68
2023-06-04T07:31:31.033Z,16.70
2023-06-04T07:32:33.197Z,16.71
2023-06-04T07:33:35.174Z,16.74
2023-06-04T07:34:38.365Z,16.78
2023-06-04T07:35:40.105Z,16.84
2023-06-04T07:36:41.952Z,16.88
2023-06-04T07:37:46.313Z,16.91
2023-06-04T07:38:48.068Z,16.94
2023-06-04T07:39:50.250Z,16.98
2023-06-04T07:40:52.138Z,16.99
2023-06-04T07:41:55.290Z,16.97
2023-06-04T07:42:57.028Z,16.96
2023-06-04T07:43:59.137Z,16.96
2023-06-04T07:45:00.863Z,16.99
2023-06-04T07:46:03.408Z,17.05
2023-06-04T07:47:05.395Z,17.08
2023-06-04T07:48:07.344Z,17.10
2023-06-04T07:49:10.017Z,17.12
2023-06-04T07:50:12.238Z,17.14
2023-06-04T07:51:14.857Z,17.13
2023-06-04T07:52:16.738Z,17.14
2023-06-04T07:53:18.444Z,17.17
2023-06-04T07:54:20.311Z,17.17
2023-06-04T07:55:22.081Z,17.16
2023-06-04T07:56:24.207Z,17.13
2023-06-04T07:57:26.257Z,17.16
2023-06-04T07:58:28.104Z,17.16
2023-06-04T07:59:30.916Z,17.20
2023-06-04T08:00:32.668Z,17.22
2023-06-04T08:01:34.424Z,17.22
2023-06-04T08:02:36.227Z,17.24
2023-06-04T08:03:43.338Z,17.28
2023-06-04T08:04:48.747Z,17.28
2023-06-04T08:05:50.843Z,17.29
2023-06-04T08:06:53.096Z,17.33
2023-06-04T08:07:55.236Z,17.36
2023-06-04T08:08:57.010Z,17.38
2023-06-04T08:09:58.849Z,17.42
2023-06-04T08:11:00.970Z,17.43
2023-06-04T08:12:02.802Z,17.45
2023-06-04T08:13:05.058Z,17.43
2023-06-04T08:14:06.835Z,17.45
2023-06-04T08:15:09.358Z,17.46
2023-06-04T08:16:11.600Z,17.50
2023-06-04T08:17:13.497Z,17.54
2023-06-04T08:18:18.500Z,17.56
2023-06-04T08:19:20.441Z,17.56
2023-06-04T08:20:22.473Z,17.57
2023-06-04T08:21:28.560Z,17.59
2023-06-04T08:22:30.474Z,17.61
2023-06-04T08:23:32.257Z,17.65
2023-06-04T08:24:34.129Z,17.66
2023-06-04T08:25:35.944Z,17.69
2023-06-04T08:26:37.747Z,17.71
2023-06-04T08:27:39.484Z,17.74
2023-06-04T08:28:41.310Z,17.74
2023-06-04T08:29:43.024Z,17.75
2023-06-04T08:30:44.869Z,17.78
2023-06-04T08:31:47.164Z,17.81
2023-06-04T08:32:50.010Z,17.86
2023-06-04T08:33:52.025Z,17.88
2023-06-04T08:34:53.877Z,17.92
2023-06-04T08:35:55.650Z,17.96
2023-06-04T08:36:58.496Z,17.98
2023-06-04T08:38:00.777Z,18.01
2023-06-04T08:39:02.675Z,18.06
2023-06-04T08:40:06.401Z,18.10
2023-06-04T08:41:15.301Z,18.11
2023-06-04T08:42:21.444Z,18.15
2023-06-04T08:43:23.347Z,18.16
2023-06-04T08:44:25.114Z,18.18
2023-06-04T08:45:27.776Z,18.21
2023-06-04T08:46:32.993Z,18.24
2023-06-04T08:47:35.889Z,18.27
2023-06-04T08:48:38.916Z,18.32
2023-06-04T08:49:42.293Z,18.32
2023-06-04T08:50:46.538Z,18.33
2023-06-04T08:51:48.839Z,18.37
2023-06-04T08:52:55.132Z,18.41
2023-06-04T08:53:58.756Z,18.45
2023-06-04T08:55:00.660Z,18.49
2023-06-04T08:56:02.533Z,18.51
2023-06-04T08:57:04.901Z,18.56
2023-06-04T08:58:09.616Z,18.58
2023-06-04T08:59:12.381Z,18.58
2023-06-04T09:00:14.998Z,18.62
2023-06-04T09:01:17.627Z,18.67
2023-06-04T09:02:19.567Z,18.74
2023-06-04T09:03:21.997Z,18.81
2023-06-04T09:04:24.120Z,18.88
2023-06-04T09:05:26.280Z,18.92
2023-06-04T09:06:28.103Z,18.96
2023-06-04T09:07:30.712Z,18.99
2023-06-04T09:08:33.188Z,19.04
2023-06-04T09:09:48.749Z,19.10
2023-06-04T09:10:56.631Z,19.20
2023-06-04T09:11:58.677Z,19.24
2023-06-04T09:13:02.776Z,19.30
2023-06-04T09:14:08.057Z,19.34
2023-06-04T09:15:09.943Z,19.38
2023-06-04T09:16:11.898Z,19.43
2023-06-04T09:17:13.760Z,19.48
2023-06-04T09:18:16.010Z,19.51
2023-06-04T09:19:18.640Z,19.53
2023-06-04T09:20:21.355Z,19.56
2023-06-04T09:21:23.254Z,19.57
2023-06-04T09:22:35.161Z,19.59
2023-06-04T09:23:38.816Z,19.61
2023-06-04T09:24:41.785Z,19.64
2023-06-04T09:25:44.984Z,19.64
2023-06-04T09:26:47.515Z,19.68
2023-06-04T09:27:50.379Z,19.71
2023-06-04T09:28:54.474Z,19.74
2023-06-04T09:30:00.648Z,19.75
2023-06-04T09:31:04.076Z,19.75
2023-06-04T09:32:05.980Z,19.81
2023-06-04T09:33:08.852Z,19.83
2023-06-04T09:34:11.194Z,19.84
2023-06-04T09:35:17.438Z,19.86
2023-06-04T09:36:19.561Z,19.90
2023-06-04T09:37:23.535Z,19.91
2023-06-04T09:38:34.037Z,19.93
2023-06-04T09:39:35.856Z,19.97
2023-06-04T09:40:38.845Z,19.99
2023-06-04T09:41:41.170Z,20.04
2023-06-04T09:42:44.110Z,20.08
2023-06-04T09:43:45.943Z,20.14
2023-06-04T09:44:47.710Z,20.19
2023-06-04T09:45:49.656Z,20.25
2023-06-04T09:46:56.024Z,20.29
2023-06-04T09:47:58.038Z,20.32
2023-06-04T09:49:04.080Z,20.35
2023-06-04T09:50:06.529Z,20.35
2023-06-04T09:51:16.819Z,20.38
2023-06-04T09:52:18.859Z,20.39
2023-06-04T09:53:29.730Z,20.40
2023-06-04T09:54:37.725Z,20.41
2023-06-04T09:55:39.560Z,20.38
2023-06-04T09:56:42.316Z,20.34
2023-06-04T09:57:45.973Z,20.33
2023-06-04T09:58:49.886Z,20.33
2023-06-04T09:59:51.607Z,20.33
2023-06-04T10:00:55.257Z,20.34
2023-06-04T10:01:57.236Z,20.35
2023-06-04T10:03:02.568Z,20.33
2023-06-04T10:04:05.238Z,20.33
2023-06-04T10:05:10.362Z,20.33
2023-06-04T10:06:16.073Z,20.34
2023-06-04T10:07:18.504Z,20.33
2023-06-04T10:08:23.013Z,20.31
2023-06-04T10:09:27.420Z,20.32
2023-06-04T10:10:29.909Z,20.33
2023-06-04T10:11:34.541Z,20.34
2023-06-04T10:12:38.402Z,20.35
2023-06-04T10:13:44.816Z,20.32
2023-06-04T10:14:55.779Z,20.26
2023-06-04T10:16:00.153Z,20.28
2023-06-04T10:17:02.503Z,20.29
2023-06-04T10:18:05.266Z,20.31
2023-06-04T10:19:08.439Z,20.32
2023-06-04T10:20:11.915Z,20.33
2023-06-04T10:21:17.718Z,20.33
2023-06-04T10:22:20.786Z,20.32
2023-06-04T10:23:23.652Z,20.30
2023-06-04T10:24:27.894Z,20.31
2023-06-04T10:25:30.013Z,20.31
2023-06-04T10:26:33.930Z,20.26
2023-06-04T10:27:36.658Z,20.25
2023-06-04T10:28:38.394Z,20.28
2023-06-04T10:29:41.014Z,20.31
2023-06-04T10:30:42.737Z,20.33
2023-06-04T10:31:45.339Z,20.34
2023-06-04T10:32:48.154Z,20.34
2023-06-04T10:33:54.705Z,20.35
2023-06-04T10:34:58.660Z,20.33
2023-06-04T10:36:16.582Z,20.33
2023-06-04T10:37:22.715Z,20.36
2023-06-04T10:38:25.310Z,20.39
2023-06-04T10:39:30.921Z,20.41
2023-06-04T10:40:36.126Z,20.40
2023-06-04T10:41:38.368Z,20.41
2023-06-04T10:42:42.350Z,20.43
2023-06-04T10:43:47.823Z,20.41
2023-06-04T10:44:51.167Z,20.39
2023-06-04T10:45:52.921Z,20.38
2023-06-04T10:46:54.797Z,20.41
2023-06-04T10:48:03.529Z,20.44
2023-06-04T10:49:05.364Z,20.46
2023-06-04T10:50:13.902Z,20.50
2023-06-04T10:51:16.308Z,20.55
2023-06-04T10:52:18.506Z,20.57
2023-06-04T10:53:21.380Z,20.62
2023-06-04T10:54:25.546Z,20.67
2023-06-04T10:55:27.381Z,20.74
2023-06-04T10:56:30.247Z,20.76
2023-06-04T10:57:33.254Z,20.84
2023-06-04T10:58:35.398Z,20.92
2023-06-04T10:59:37.292Z,21.01
2023-06-04T11:00:39.811Z,21.04
2023-06-04T11:01:41.685Z,21.10
2023-06-04T11:02:53.600Z,21.12
2023-06-04T11:03:56.696Z,21.13
2023-06-04T11:05:07.098Z,21.18
2023-06-04T11:06:18.489Z,21.26
2023-06-04T11:07:21.060Z,21.36
2023-06-04T11:08:30.017Z,21.40
2023-06-04T11:09:34.482Z,21.40
2023-06-04T11:10:38.031Z,21.41
2023-06-04T11:11:39.868Z,21.40
2023-06-04T11:12:46.048Z,21.45
2023-06-04T11:13:48.152Z,21.47
2023-06-04T11:15:00.280Z,21.49
2023-06-04T11:16:02.076Z,21.51
2023-06-04T11:17:11.082Z,21.51
2023-06-04T11:18:16.759Z,21.49
2023-06-04T11:19:21.755Z,21.48
2023-06-04T11:20:24.505Z,21.50
2023-06-04T11:21:28.015Z,21.49
2023-06-04T11:22:30.088Z,21.46
2023-06-04T11:23:31.971Z,21.43
2023-06-04T11:24:33.963Z,21.44
2023-06-04T11:25:36.370Z,21.42
2023-06-04T11:26:41.086Z,21.37
2023-06-04T11:27:46.584Z,21.33
2023-06-04T11:28:51.412Z,21.31
2023-06-04T11:29:53.896Z,21.29
2023-06-04T11:31:07.523Z,21.28
2023-06-04T11:32:09.462Z,21.24
2023-06-04T11:33:11.265Z,21.22
2023-06-04T11:34:33.390Z,21.17
2023-06-04T11:35:43.090Z,21.17
2023-06-04T11:36:44.854Z,21.15
2023-06-04T11:37:56.577Z,21.14
2023-06-04T11:39:02.206Z,21.12
2023-06-04T11:40:07.954Z,21.08
2023-06-04T11:41:10.049Z,21.07
2023-06-04T11:42:12.215Z,21.10
2023-06-04T11:43:14.472Z,21.11
2023-06-04T11:44:19.319Z,21.13
2023-06-04T11:45:23.620Z,21.11
2023-06-04T11:46:25.815Z,21.12
2023-06-04T11:47:27.578Z,21.10
2023-06-04T11:48:30.510Z,21.12
2023-06-04T11:49:32.660Z,21.11
2023-06-04T11:50:34.761Z,21.13
2023-06-04T11:51:37.341Z,21.14
2023-06-04T11:52:39.318Z,21.17
2023-06-04T11:53:41.405Z,21.20
2023-06-04T11:54:43.191Z,21.23
2023-06-04T11:55:45.060Z,21.29
2023-06-04T11:56:47.802Z,21.32
2023-06-04T11:57:52.547Z,21.37
2023-06-04T11:58:55.923Z,21.45
2023-06-04T11:59:58.176Z,21.53
2023-06-04T12:01:01.281Z,21.58
2023-06-04T12:02:03.122Z,21.65
2023-06-04T12:03:05.121Z,21.70
2023-06-04T12:04:16.537Z,21.74
2023-06-04T12:05:22.035Z,21.77
2023-06-04T12:06:23.890Z,21.81
2023-06-04T12:07:25.848Z,21.81
2023-06-04T12:08:27.700Z,21.81
2023-06-04T12:09:30.631Z,21.83
2023-06-04T12:10:38.259Z,21.83
2023-06-04T12:11:42.816Z,21.83
2023-06-04T12:12:44.628Z,21.81
2023-06-04T12:13:46.488Z,21.82
2023-06-04T12:14:48.435Z,21.83
2023-06-04T12:15:55.950Z,21.83
2023-06-04T12:16:57.781Z,21.82
2023-06-04T12:17:59.807Z,21.82
2023-06-04T12:19:08.861Z,21.88
2023-06-04T12:20:10.811Z,21.98
2023-06-04T12:21:23.536Z,22.05
2023-06-04T12:22:26.254Z,22.10
2023-06-04T12:23:28.099Z,22.13
2023-06-04T12:24:30.752Z,22.11
2023-06-04T12:25:33.285Z,22.12
2023-06-04T12:26:39.098Z,22.10
2023-06-04T12:27:48.480Z,22.11
2023-06-04T12:28:59.664Z,22.17
2023-06-04T12:30:05.681Z,22.29
2023-06-04T12:31:17.161Z,22.36
2023-06-04T12:32:18.958Z,22.47
2023-06-04T12:33:20.822Z,22.56
2023-06-04T12:34:22.894Z,22.60
2023-06-04T12:35:24.734Z,22.65
2023-06-04T12:36:27.232Z,22.73
2023-06-04T12:37:29.654Z,23.06
2023-06-04T12:38:31.402Z,23.23
2023-06-04T12:39:38.430Z,23.26
2023-06-04T12:40:41.268Z,23.38
2023-06-04T12:41:46.189Z,23.60
2023-06-04T12:42:51.557Z,23.84
2023-06-04T12:43:53.727Z,23.99
2023-06-04T12:44:56.426Z,24.06
2023-06-04T12:45:58.373Z,24.08
2023-06-04T12:47:00.205Z,24.12
2023-06-04T12:48:01.933Z,24.16
2023-06-04T12:49:03.709Z,24.28
2023-06-04T12:50:05.702Z,24.44
2023-06-04T12:51:11.716Z,24.47
2023-06-04T12:52:15.462Z,24.44
2023-06-04T12:53:17.652Z,24.31
2023-06-04T12:54:19.457Z,24.18
2023-06-04T12:55:22.031Z,24.10
2023-06-04T12:56:23.913Z,24.02
2023-06-04T12:57:25.859Z,24.00
2023-06-04T12:58:27.654Z,23.96
2023-06-04T12:59:29.833Z,23.96
2023-06-04T13:00:31.716Z,23.98
2023-06-04T13:01:33.689Z,23.95
2023-06-04T13:02:35.579Z,23.95
2023-06-04T13:03:38.986Z,23.99
2023-06-04T13:04:42.956Z,23.98
2023-06-04T13:05:44.708Z,23.94
2023-06-04T13:06:49.221Z,23.86
2023-06-04T13:07:51.339Z,23.82
2023-06-04T13:08:53.205Z,23.82
2023-06-04T13:09:55.059Z,23.84
2023-06-04T13:10:57.188Z,23.87
2023-06-04T13:11:59.091Z,23.88
2023-06-04T13:13:01.004Z,23.91
2023-06-04T13:14:02.772Z,23.94
2023-06-04T13:15:04.779Z,23.93
2023-06-04T13:16:06.589Z,23.93
2023-06-04T13:17:21.210Z,23.94
2023-06-04T13:18:24.280Z,23.91
2023-06-04T13:19:27.805Z,23.92
2023-06-04T13:20:29.896Z,23.88
2023-06-04T13:21:31.576Z,23.85
2023-06-04T13:22:33.348Z,23.82
2023-06-04T13:23:49.433Z,23.81
2023-06-04T13:24:53.041Z,23.76
2023-06-04T13:25:54.818Z,23.69
2023-06-04T13:26:57.282Z,23.65
2023-06-04T13:27:59.087Z,23.61
2023-06-04T13:29:00.978Z,23.55
2023-06-04T13:30:02.897Z,23.55
2023-06-04T13:31:04.718Z,23.56
2023-06-04T13:32:06.628Z,23.55